Nueva Hesperides International Airport

Jump to: basic info | weather | frequencies | runways | comments

Related pages: nearby airports | nearby navaids | notams | map

Basic information (top)

Codes: STY SUSO
Location: lon -31.438499, lat -57.985298, elev 187 ft / 57 m msl
Status: medium_airport

Weather (top)

Current conditions (rec'd 2015/04/25 23:00Z):

SUSO 252300Z 00000KTA CAVOK 20/11 Q1018

Airport forecast (rec'd 2015/04/23 18:15Z):

TAF SUSO 231715Z 2318/2418 07008KT 9999 FEW023 TX27/2418Z TN09/2410Z 
      BECMG 2318/2322 13005KT 9999 FEW020 
      TEMPO 2408/2412 05005KT CAVOK

Frequencies (top)

Verify before use: may be inaccurate or out of date.

RDO: 286 MHz (SALTO RDO)
TWR: 118.8 MHz (SALTO TWR)

Runways (top)

05/23: 5,210 x 148 ft (1,588 x 45 m) — paved — lighted

13/31: 2,461 x 164 ft (750 x 50 m) — grass — not lighted

Latest comments (top)

No comments yet for Nueva Hesperides International Airport

More... (top)

See also NOTAMs and nearby airports and navaids, or visit the Nueva Hesperides International Airport page at the main OurAirports website..